Time;durP1;ratioP1;P1;durP2;ratioP2;P2;SDS_P1;SDS_P2;PMS_P1;PMS_P2;Temp;Humidity;BMP_temperature;BMP_pressure;BME280_temperature;BME280_humidity;BME280_pressure;Samples;Min_cycle;Max_cycle;Signal;HPM_P1;HPM_P2
2023/03/14 00:01:23;;;;;;;9.00;0.70;;;10.60;99.90;;;;;;4974067;28;20042;-75
2023/03/14 00:03:49;;;;;;;1.27;0.40;;;10.60;99.90;;;;;;4974440;28;20041;-75
2023/03/14 00:06:16;;;;;;;1.27;0.43;;;10.60;99.90;;;;;;4974098;28;20034;-74
2023/03/14 00:08:43;;;;;;;0.60;0.40;;;10.50;99.90;;;;;;4973154;28;20026;-75
2023/03/14 00:11:18;;;;;;;0.50;0.30;;;10.50;99.90;;;;;;4978566;28;20031;-74
2023/03/14 00:13:47;;;;;;;0.90;0.30;;;10.50;99.90;;;;;;4971086;28;20026;-75
2023/03/14 00:16:13;;;;;;;0.88;0.22;;;10.50;99.90;;;;;;4974664;28;20517;-75
2023/03/14 00:18:39;;;;;;;0.57;0.30;;;10.50;99.90;;;;;;4973543;28;20105;-74
2023/03/14 00:21:07;;;;;;;0.20;0.20;;;10.40;99.90;;;;;;4973637;28;20508;-75
2023/03/14 00:23:35;;;;;;;0.60;0.47;;;10.40;99.90;;;;;;4975545;28;20068;-75
2023/03/14 00:26:02;;;;;;;0.40;0.20;;;10.30;99.90;;;;;;4975026;28;20100;-76
2023/03/14 00:28:28;;;;;;;0.20;0.20;;;10.30;99.90;;;;;;4971098;28;20087;-75
2023/03/14 00:30:54;;;;;;;0.25;0.20;;;10.30;99.90;;;;;;4968369;28;20492;-75
2023/03/14 00:33:20;;;;;;;1.25;0.17;;;10.30;99.90;;;;;;4970951;28;20023;-76
2023/03/14 00:36:02;;;;;;;0.30;0.10;;;10.20;99.90;;;;;;4983371;28;20030;-75
2023/03/14 00:38:27;;;;;;;0.57;0.30;;;10.20;99.90;;;;;;4970103;28;20499;-75
2023/03/14 00:40:54;;;;;;;0.10;0.10;;;10.20;99.90;;;;;;4972004;28;20039;-75
2023/03/14 00:43:23;;;;;;;1.60;0.20;;;10.20;99.90;;;;;;4966799;28;20045;-75
2023/03/14 00:45:52;;;;;;;0.10;0.10;;;10.20;99.90;;;;;;4976602;28;20031;-76
2023/03/14 00:48:19;;;;;;;0.13;0.10;;;10.20;99.90;;;;;;4975458;28;20023;-75
2023/03/14 00:50:45;;;;;;;0.77;0.13;;;10.20;99.90;;;;;;4977463;28;20251;-75
2023/03/14 00:53:11;;;;;;;0.57;0.10;;;10.20;99.90;;;;;;4988927;28;20098;-77
2023/03/14 00:55:42;;;;;;;0.43;0.10;;;10.20;99.90;;;;;;4974959;28;20023;-73
2023/03/14 00:58:08;;;;;;;1.45;0.10;;;10.10;99.90;;;;;;4971898;28;20023;-74
2023/03/14 01:00:35;;;;;;;0.20;0.10;;;10.20;99.90;;;;;;4972777;28;20035;-75
2023/03/14 01:03:01;;;;;;;1.48;0.10;;;10.20;99.90;;;;;;4976832;28;20030;-75
2023/03/14 01:05:27;;;;;;;0.10;0.10;;;10.10;99.90;;;;;;4977258;28;20097;-76
2023/03/14 01:07:53;;;;;;;0.30;0.20;;;10.10;99.90;;;;;;4977400;28;20050;-77
2023/03/14 01:10:19;;;;;;;0.22;0.10;;;10.10;99.90;;;;;;4977855;28;20626;-76
2023/03/14 01:12:44;;;;;;;1.17;0.40;;;10.10;99.90;;;;;;4976923;28;20038;-76
2023/03/14 01:15:10;;;;;;;0.35;0.20;;;10.10;99.90;;;;;;4977614;28;20031;-76
2023/03/14 01:17:37;;;;;;;0.57;0.30;;;10.10;99.90;;;;;;4975625;28;20042;-76
2023/03/14 01:20:04;;;;;;;1.65;0.50;;;10.10;99.90;;;;;;4977428;28;20105;-76
2023/03/14 01:22:30;;;;;;;1.98;0.38;;;10.20;99.90;;;;;;4973687;28;20023;-76
2023/03/14 01:24:56;;;;;;;0.40;0.20;;;10.20;99.90;;;;;;4975632;28;20113;-75
2023/03/14 01:27:21;;;;;;;0.95;0.25;;;10.20;99.90;;;;;;4976055;28;20026;-75
2023/03/14 01:29:47;;;;;;;0.45;0.10;;;10.20;99.90;;;;;;4976596;28;20046;-75
2023/03/14 01:32:13;;;;;;;0.30;0.20;;;10.20;99.90;;;;;;4973507;28;20345;-75
2023/03/14 01:34:38;;;;;;;0.35;0.20;;;10.30;99.90;;;;;;4976015;28;20023;-75
2023/03/14 01:37:05;;;;;;;0.30;0.20;;;10.30;99.90;;;;;;4975408;28;20445;-75
2023/03/14 01:39:31;;;;;;;1.05;0.22;;;10.20;99.90;;;;;;4974442;28;20087;-76
2023/03/14 01:41:56;;;;;;;0.32;0.13;;;10.30;99.90;;;;;;4969837;28;20459;-74
2023/03/14 01:44:22;;;;;;;0.50;0.15;;;10.30;99.90;;;;;;4976820;28;20049;-75
2023/03/14 01:46:48;;;;;;;0.15;0.10;;;10.30;99.90;;;;;;4978553;28;20031;-75
2023/03/14 01:49:34;;;;;;;0.30;0.20;;;10.30;99.90;;;;;;4973682;28;20061;-74
2023/03/14 01:52:24;;;;;;;0.90;0.30;;;10.30;99.90;;;;;;4973717;28;20539;-75
2023/03/14 01:54:55;;;;;;;0.45;0.35;;;10.30;99.90;;;;;;4972850;28;20035;-74
2023/03/14 01:57:28;;;;;;;0.50;0.20;;;10.30;99.90;;;;;;4975079;28;20029;-74
2023/03/14 02:00:05;;;;;;;1.10;0.30;;;10.30;99.90;;;;;;4974283;28;20384;-73
2023/03/14 02:02:31;;;;;;;1.00;0.40;;;10.30;99.90;;;;;;4972610;28;20027;-74
2023/03/14 02:04:58;;;;;;;1.48;0.30;;;10.30;99.90;;;;;;4973011;28;20042;-74
2023/03/14 02:07:44;;;;;;;3.03;0.43;;;10.30;99.90;;;;;;4969773;28;20073;-75
2023/03/14 02:10:10;;;;;;;0.63;0.28;;;10.30;99.90;;;;;;4971377;28;20444;-75
2023/03/14 02:12:36;;;;;;;0.57;0.20;;;10.30;99.90;;;;;;4974005;28;20026;-75
2023/03/14 02:15:03;;;;;;;1.55;0.20;;;10.40;99.90;;;;;;4971798;28;20026;-74
2023/03/14 02:17:29;;;;;;;0.30;0.20;;;10.30;99.90;;;;;;4970140;28;20030;-74
2023/03/14 02:20:07;;;;;;;0.60;0.28;;;10.40;99.90;;;;;;4967786;28;20038;-75
2023/03/14 02:22:34;;;;;;;0.43;0.17;;;10.40;99.90;;;;;;4972489;28;20037;-75
2023/03/14 02:25:13;;;;;;;0.35;0.25;;;10.40;99.90;;;;;;4968814;28;20038;-75
2023/03/14 02:27:39;;;;;;;0.20;0.20;;;10.40;99.90;;;;;;4971187;28;20060;-74
2023/03/14 02:30:10;;;;;;;1.48;0.17;;;10.50;99.90;;;;;;4973133;28;20031;-75
2023/03/14 02:32:38;;;;;;;0.70;0.30;;;10.50;99.90;;;;;;4970927;28;20035;-74
2023/03/14 02:35:11;;;;;;;0.40;0.30;;;10.50;99.90;;;;;;4971131;28;20460;-75
2023/03/14 02:38:06;;;;;;;0.40;0.20;;;10.50;99.90;;;;;;4974386;28;20023;-75
2023/03/14 02:40:32;;;;;;;1.48;0.13;;;10.50;99.90;;;;;;4968979;28;20320;-75
2023/03/14 02:42:58;;;;;;;0.20;0.20;;;10.50;99.90;;;;;;4970181;28;20058;-75
2023/03/14 02:45:23;;;;;;;0.55;0.10;;;10.50;99.90;;;;;;4971210;28;20035;-75
2023/03/14 02:47:57;;;;;;;0.45;0.20;;;10.40;99.90;;;;;;4973396;28;20037;-75
2023/03/14 02:50:26;;;;;;;0.45;0.20;;;10.40;99.90;;;;;;4970864;28;20027;-75
2023/03/14 02:52:51;;;;;;;0.47;0.28;;;10.40;99.90;;;;;;4972910;28;20037;-74
2023/03/14 02:55:22;;;;;;;2.60;0.20;;;10.40;99.90;;;;;;4971118;28;20035;-75
2023/03/14 02:57:47;;;;;;;1.48;0.30;;;10.40;99.90;;;;;;4986881;28;20126;-74
2023/03/14 03:00:14;;;;;;;0.43;0.22;;;10.40;99.90;;;;;;4969261;28;20982;-75
2023/03/14 03:02:40;;;;;;;0.60;0.30;;;10.40;99.90;;;;;;4970489;28;20109;-75
2023/03/14 03:05:06;;;;;;;0.93;0.30;;;10.40;99.90;;;;;;4974082;28;20062;-75
2023/03/14 03:07:31;;;;;;;1.40;0.20;;;10.30;99.90;;;;;;4986831;28;20023;-76
2023/03/14 03:09:57;;;;;;;1.05;0.30;;;10.30;99.90;;;;;;4968382;28;20118;-74
2023/03/14 03:12:23;;;;;;;1.13;0.30;;;10.30;99.90;;;;;;4973443;28;20041;-74
2023/03/14 03:14:48;;;;;;;1.35;0.35;;;10.30;99.90;;;;;;4969129;28;20034;-74
2023/03/14 03:17:14;;;;;;;1.17;0.20;;;10.30;99.90;;;;;;4969918;28;20519;-75
2023/03/14 03:19:40;;;;;;;4.70;0.45;;;10.20;99.90;;;;;;4972416;28;20114;-76
2023/03/14 03:22:06;;;;;;;0.82;0.20;;;10.20;99.90;;;;;;4972455;28;20498;-76
2023/03/14 03:24:32;;;;;;;3.05;0.60;;;10.20;99.90;;;;;;4982002;23;20039;-79
2023/03/14 03:26:59;;;;;;;1.58;0.60;;;10.20;99.90;;;;;;4963993;28;20133;-79
2023/03/14 03:29:24;;;;;;;1.17;0.22;;;10.20;99.90;;;;;;4964285;28;20443;-79
2023/03/14 03:31:50;;;;;;;0.80;0.30;;;10.20;99.90;;;;;;4968045;28;20038;-79
2023/03/14 03:34:15;;;;;;;3.15;0.30;;;10.20;99.90;;;;;;4965889;28;20062;-80
2023/03/14 03:36:41;;;;;;;1.80;0.38;;;10.20;99.90;;;;;;4965650;28;20034;-79
2023/03/14 03:39:07;;;;;;;0.47;0.20;;;10.10;99.90;;;;;;4962864;28;20077;-79
2023/03/14 03:41:33;;;;;;;1.58;0.30;;;10.10;99.90;;;;;;4962905;28;20074;-80
2023/03/14 03:43:59;;;;;;;2.17;0.50;;;10.10;99.90;;;;;;4963128;28;20417;-79
2023/03/14 03:46:25;;;;;;;0.85;0.30;;;10.00;99.90;;;;;;4966319;28;20450;-79
2023/03/14 03:48:58;;;;;;;1.38;0.30;;;10.00;99.90;;;;;;4963965;28;20038;-79
2023/03/14 03:51:23;;;;;;;0.97;0.50;;;10.00;99.90;;;;;;4963369;28;20126;-79
2023/03/14 03:53:49;;;;;;;2.63;0.68;;;10.00;99.90;;;;;;4964193;28;20110;-79
2023/03/14 03:56:15;;;;;;;1.77;0.63;;;10.00;99.90;;;;;;4964411;28;20407;-79
2023/03/14 03:58:41;;;;;;;2.28;0.40;;;10.00;99.90;;;;;;4962841;28;21431;-79
2023/03/14 04:01:08;;;;;;;1.65;0.20;;;9.90;99.90;;;;;;4964051;28;20030;-79
2023/03/14 04:03:34;;;;;;;2.08;0.50;;;9.90;99.90;;;;;;4966098;28;20027;-79
2023/03/14 04:06:09;;;;;;;1.02;0.35;;;9.90;99.90;;;;;;4965145;28;20058;-79
2023/03/14 04:08:35;;;;;;;3.03;0.68;;;9.90;99.90;;;;;;4962549;28;20114;-79
2023/03/14 04:11:02;;;;;;;0.55;0.45;;;9.90;99.90;;;;;;4962449;28;20404;-78
2023/03/14 04:13:28;;;;;;;2.38;0.57;;;9.90;99.90;;;;;;4962250;28;20045;-78
2023/03/14 04:15:54;;;;;;;2.72;0.40;;;9.90;99.90;;;;;;4962171;28;20352;-79
2023/03/14 04:18:21;;;;;;;2.97;0.50;;;9.90;99.90;;;;;;4958841;28;20031;-79
2023/03/14 04:20:52;;;;;;;3.17;0.35;;;9.80;99.90;;;;;;4965704;28;20062;-79
2023/03/14 04:23:17;;;;;;;1.67;0.43;;;9.80;99.90;;;;;;4964676;28;20054;-79
2023/03/14 04:25:43;;;;;;;1.35;0.38;;;9.80;99.90;;;;;;4964394;28;20089;-78
2023/03/14 04:28:08;;;;;;;2.38;0.30;;;9.90;99.90;;;;;;4966787;28;20031;-78
2023/03/14 04:30:34;;;;;;;1.35;0.43;;;9.80;99.90;;;;;;4966247;28;20443;-79
2023/03/14 04:33:00;;;;;;;1.00;0.43;;;9.90;99.90;;;;;;4962065;28;20065;-79
2023/03/14 04:35:25;;;;;;;1.15;0.35;;;9.90;99.90;;;;;;4964623;28;20027;-78
2023/03/14 04:37:51;;;;;;;1.40;0.30;;;9.90;99.90;;;;;;4963883;28;20551;-78
2023/03/14 04:40:17;;;;;;;4.07;0.60;;;9.90;99.90;;;;;;4963096;28;20023;-78
2023/03/14 04:42:43;;;;;;;0.45;0.35;;;9.90;99.90;;;;;;4964856;28;20035;-78
2023/03/14 04:45:09;;;;;;;1.52;0.50;;;9.90;99.90;;;;;;4965614;28;20023;-78
2023/03/14 04:47:35;;;;;;;3.10;0.63;;;9.90;99.90;;;;;;4961506;28;20057;-78
2023/03/14 04:50:01;;;;;;;2.10;0.30;;;9.90;99.90;;;;;;4965716;28;20143;-78
2023/03/14 04:52:27;;;;;;;2.75;0.50;;;9.90;99.90;;;;;;4963820;28;20126;-78
2023/03/14 04:54:52;;;;;;;6.13;0.80;;;10.00;99.90;;;;;;4966770;28;20030;-78
2023/03/14 04:57:18;;;;;;;1.33;0.45;;;10.00;99.90;;;;;;4961899;28;20349;-79
2023/03/14 04:59:43;;;;;;;1.40;0.35;;;10.00;99.90;;;;;;4978648;28;20121;-78
2023/03/14 05:02:09;;;;;;;4.00;0.70;;;10.00;99.90;;;;;;4961769;28;20174;-78
2023/03/14 05:04:35;;;;;;;4.93;0.50;;;10.00;99.90;;;;;;4963976;28;21464;-78
2023/03/14 05:07:01;;;;;;;3.03;0.40;;;10.00;99.90;;;;;;4968100;28;20647;-79
2023/03/14 05:09:27;;;;;;;2.03;0.50;;;10.00;99.90;;;;;;4963745;28;20113;-78
2023/03/14 05:11:52;;;;;;;2.63;0.38;;;10.00;99.90;;;;;;4968362;28;20530;-78
2023/03/14 05:14:18;;;;;;;4.32;0.50;;;10.00;99.90;;;;;;4962080;28;20046;-79
2023/03/14 05:16:43;;;;;;;3.10;0.65;;;10.00;99.90;;;;;;4964153;28;20046;-78
2023/03/14 05:19:10;;;;;;;1.25;0.30;;;10.00;99.90;;;;;;4966674;28;20057;-78
2023/03/14 05:21:36;;;;;;;4.43;0.65;;;9.90;99.90;;;;;;4962862;28;20034;-78
2023/03/14 05:24:02;;;;;;;3.03;0.40;;;10.00;99.90;;;;;;4966279;28;20480;-78
2023/03/14 05:26:27;;;;;;;1.08;0.40;;;9.90;99.90;;;;;;4965505;28;20070;-78
2023/03/14 05:28:53;;;;;;;3.40;0.55;;;9.90;99.90;;;;;;4964327;28;20039;-78
2023/03/14 05:31:19;;;;;;;1.73;0.50;;;9.90;99.90;;;;;;4966144;28;20031;-78
2023/03/14 05:33:44;;;;;;;6.03;0.70;;;9.90;99.90;;;;;;4966638;28;20498;-78
2023/03/14 05:36:10;;;;;;;3.42;1.05;;;9.90;99.90;;;;;;4964136;28;20357;-80
2023/03/14 05:38:36;;;;;;;1.38;0.43;;;9.90;99.90;;;;;;4963198;28;20184;-80
2023/03/14 05:41:01;;;;;;;0.63;0.30;;;9.90;99.90;;;;;;4965085;28;20125;-80
2023/03/14 05:43:27;;;;;;;0.70;0.40;;;9.90;99.90;;;;;;4965290;28;20093;-79
2023/03/14 05:45:52;;;;;;;0.77;0.30;;;9.90;99.90;;;;;;4969718;28;20134;-78
2023/03/14 05:48:18;;;;;;;1.65;0.30;;;9.90;99.90;;;;;;4963795;28;20027;-79
2023/03/14 05:50:44;;;;;;;2.47;0.30;;;9.90;99.90;;;;;;4971453;28;20026;-79
2023/03/14 05:53:09;;;;;;;1.00;0.20;;;10.00;99.90;;;;;;4967416;28;20048;-81
2023/03/14 05:55:35;;;;;;;1.73;0.28;;;10.00;99.90;;;;;;4970077;28;20081;-80
2023/03/14 05:58:01;;;;;;;1.40;0.45;;;10.00;99.90;;;;;;4968021;28;20058;-79
2023/03/14 06:00:26;;;;;;;1.58;0.40;;;10.00;99.90;;;;;;4969846;28;20064;-82
2023/03/14 06:02:52;;;;;;;1.45;0.45;;;10.00;99.90;;;;;;4973370;28;20365;-79
2023/03/14 06:05:18;;;;;;;1.33;0.47;;;10.00;99.90;;;;;;4968534;28;20119;-77
2023/03/14 06:07:43;;;;;;;3.33;0.60;;;10.40;99.90;;;;;;4969092;28;20360;-77
2023/03/14 06:10:09;;;;;;;2.20;0.70;;;10.70;99.90;;;;;;4968822;28;20034;-77
2023/03/14 06:12:35;;;;;;;1.90;0.40;;;11.00;99.90;;;;;;4967633;28;20066;-77
2023/03/14 06:15:01;;;;;;;1.17;0.43;;;11.10;99.90;;;;;;4965535;28;20031;-80
2023/03/14 06:17:29;;;;;;;1.85;0.40;;;10.90;99.90;;;;;;4965452;28;20026;-83
2023/03/14 06:19:55;;;;;;;2.42;0.43;;;10.70;99.90;;;;;;4961608;28;20700;-80
2023/03/14 06:22:20;;;;;;;2.22;0.50;;;10.60;99.90;;;;;;4967540;28;20034;-80
2023/03/14 06:24:46;;;;;;;1.92;0.60;;;10.50;99.90;;;;;;4966864;28;20036;-80
2023/03/14 06:27:11;;;;;;;1.77;0.65;;;10.40;99.90;;;;;;4966775;28;20392;-80
2023/03/14 06:29:37;;;;;;;1.10;0.50;;;10.30;99.90;;;;;;4971131;28;20026;-80
2023/03/14 06:32:04;;;;;;;3.15;0.60;;;10.30;99.90;;;;;;4963423;28;20026;-81
2023/03/14 06:34:30;;;;;;;1.90;0.52;;;10.20;99.90;;;;;;4964490;28;20027;-81
2023/03/14 06:36:55;;;;;;;1.23;0.45;;;10.20;99.90;;;;;;4964099;28;20027;-80
2023/03/14 06:39:21;;;;;;;1.50;0.40;;;10.20;99.90;;;;;;4966841;28;21179;-79
2023/03/14 06:41:46;;;;;;;1.25;0.30;;;10.20;99.90;;;;;;4970551;28;20527;-80
2023/03/14 06:44:12;;;;;;;2.47;0.38;;;10.20;99.90;;;;;;4968414;28;20026;-80
2023/03/14 06:46:37;;;;;;;0.68;0.22;;;10.20;99.90;;;;;;4968232;28;20038;-80
2023/03/14 06:49:03;;;;;;;2.13;0.40;;;10.20;99.90;;;;;;4967955;28;20037;-79
2023/03/14 06:51:29;;;;;;;1.83;0.20;;;10.20;99.90;;;;;;4962061;28;20463;-78
2023/03/14 06:53:54;;;;;;;2.13;0.30;;;10.20;99.90;;;;;;4963951;28;20085;-78
2023/03/14 06:56:20;;;;;;;1.13;0.30;;;10.30;99.90;;;;;;4961887;28;20035;-78
2023/03/14 06:58:46;;;;;;;0.80;0.30;;;10.30;99.90;;;;;;4968675;28;20041;-78
2023/03/14 07:01:24;;;;;;;0.88;0.40;;;10.30;99.90;;;;;;4966766;28;20109;-78
2023/03/14 07:03:50;;;;;;;3.08;0.35;;;10.30;99.90;;;;;;4967306;28;20038;-78
2023/03/14 07:06:16;;;;;;;1.20;0.40;;;10.30;99.90;;;;;;4964982;28;20030;-78
2023/03/14 07:08:41;;;;;;;1.85;0.38;;;10.40;99.90;;;;;;4966890;28;20043;-78
2023/03/14 07:11:10;;;;;;;0.75;0.30;;;10.40;99.90;;;;;;4963082;28;20164;-78
2023/03/14 07:13:37;;;;;;;1.20;0.25;;;10.40;99.90;;;;;;4969973;28;20043;-78
2023/03/14 07:16:03;;;;;;;2.50;0.20;;;10.40;99.90;;;;;;4967572;28;20024;-78
2023/03/14 07:18:28;;;;;;;0.68;0.17;;;10.50;99.90;;;;;;4966455;28;20388;-78
2023/03/14 07:20:54;;;;;;;4.78;0.30;;;10.60;99.90;;;;;;4972975;28;20553;-78
2023/03/14 07:23:20;;;;;;;0.38;0.20;;;10.50;99.90;;;;;;4964500;28;20395;-80
2023/03/14 07:25:45;;;;;;;0.77;0.20;;;10.50;99.90;;;;;;4966602;28;20037;-79
2023/03/14 07:28:11;;;;;;;0.40;0.20;;;10.50;99.90;;;;;;4962897;28;20407;-79
2023/03/14 07:30:37;;;;;;;0.25;0.17;;;10.50;99.90;;;;;;4963876;28;20555;-79
2023/03/14 07:33:03;;;;;;;0.80;0.20;;;10.50;99.90;;;;;;4962679;28;20443;-79
2023/03/14 07:35:28;;;;;;;1.70;0.30;;;10.60;99.90;;;;;;4966648;28;20031;-79
2023/03/14 07:37:54;;;;;;;1.55;0.45;;;10.60;99.90;;;;;;4966924;28;20027;-80
2023/03/14 07:40:20;;;;;;;0.50;0.30;;;10.70;99.90;;;;;;4967615;28;20089;-79
2023/03/14 07:42:46;;;;;;;1.45;0.65;;;10.80;99.90;;;;;;4978534;28;20026;-81
2023/03/14 07:45:12;;;;;;;1.65;0.30;;;10.90;99.90;;;;;;4966076;28;20417;-79
2023/03/14 07:47:37;;;;;;;0.40;0.30;;;10.90;99.90;;;;;;4967101;28;20030;-79
2023/03/14 07:50:04;;;;;;;0.95;0.30;;;11.00;99.90;;;;;;4963923;28;20035;-79
2023/03/14 07:52:30;;;;;;;1.17;0.40;;;11.10;99.90;;;;;;4968052;28;20058;-79
2023/03/14 07:54:56;;;;;;;1.00;0.20;;;11.10;99.90;;;;;;4960194;28;20030;-79
2023/03/14 07:57:22;;;;;;;4.22;0.73;;;11.20;99.90;;;;;;4967120;28;20043;-79
2023/03/14 07:59:48;;;;;;;0.57;0.20;;;11.20;99.90;;;;;;4963355;28;20118;-78
2023/03/14 08:02:14;;;;;;;0.77;0.20;;;11.30;99.90;;;;;;4965295;28;20026;-79
2023/03/14 08:04:40;;;;;;;0.77;0.20;;;11.30;99.90;;;;;;4964225;28;20046;-79
2023/03/14 08:07:06;;;;;;;1.05;0.30;;;11.40;99.90;;;;;;4965127;28;20030;-79
2023/03/14 08:09:32;;;;;;;1.25;0.38;;;11.40;99.90;;;;;;4965447;28;20514;-79
2023/03/14 08:11:57;;;;;;;1.30;0.20;;;11.40;99.90;;;;;;4964971;28;20027;-79
2023/03/14 08:14:26;;;;;;;0.98;0.22;;;11.40;99.90;;;;;;4962731;28;20046;-79
2023/03/14 08:16:52;;;;;;;1.10;0.32;;;11.50;99.90;;;;;;4964987;28;20031;-79
2023/03/14 08:19:18;;;;;;;1.42;0.57;;;11.50;99.90;;;;;;4962768;28;20710;-79
2023/03/14 08:21:43;;;;;;;2.75;0.30;;;11.60;99.90;;;;;;4962788;28;20034;-79
2023/03/14 08:24:09;;;;;;;3.20;0.70;;;11.70;99.90;;;;;;4965170;28;20090;-80
2023/03/14 08:26:35;;;;;;;3.50;0.40;;;11.70;99.90;;;;;;4968844;28;20018;-79
2023/03/14 08:29:00;;;;;;;0.50;0.35;;;11.70;99.90;;;;;;4961067;28;20031;-79
2023/03/14 08:31:26;;;;;;;0.50;0.20;;;11.70;99.90;;;;;;4978973;28;20046;-80
2023/03/14 08:33:53;;;;;;;1.35;0.30;;;11.70;99.90;;;;;;4961307;28;20026;-79
2023/03/14 08:36:19;;;;;;;2.15;0.22;;;11.70;99.90;;;;;;4964572;28;20843;-79
2023/03/14 08:38:46;;;;;;;3.08;0.40;;;11.80;99.90;;;;;;4966236;28;20086;-79
2023/03/14 08:41:11;;;;;;;1.17;0.30;;;11.80;99.90;;;;;;4968282;28;20735;-79
2023/03/14 08:43:37;;;;;;;1.35;0.47;;;11.80;99.90;;;;;;4962366;28;20064;-79
2023/03/14 08:46:03;;;;;;;0.95;0.20;;;12.00;99.90;;;;;;4965276;28;20023;-79
2023/03/14 08:48:30;;;;;;;1.17;0.30;;;12.20;99.90;;;;;;4966028;28;20546;-79
2023/03/14 08:50:57;;;;;;;1.80;0.52;;;12.40;99.90;;;;;;4965843;28;20462;-79
2023/03/14 08:53:22;;;;;;;1.88;0.32;;;12.60;99.90;;;;;;4965461;28;20022;-80
2023/03/14 08:55:53;;;;;;;0.85;0.30;;;12.60;99.90;;;;;;4966376;28;20049;-79
2023/03/14 08:58:19;;;;;;;2.97;0.40;;;12.80;99.90;;;;;;4965457;28;20495;-79
2023/03/14 09:00:45;;;;;;;2.83;0.50;;;12.80;99.90;;;;;;4963809;28;20146;-77
2023/03/14 09:03:10;;;;;;;2.55;0.47;;;12.80;99.90;;;;;;4966874;28;20027;-79
2023/03/14 09:05:36;;;;;;;1.48;0.30;;;12.90;99.90;;;;;;4964884;28;20048;-80
2023/03/14 09:08:02;;;;;;;2.42;0.80;;;12.90;99.90;;;;;;4964692;28;20118;-79
2023/03/14 09:10:28;;;;;;;2.33;0.40;;;12.90;99.90;;;;;;4965300;28;20558;-80
2023/03/14 09:12:54;;;;;;;2.10;0.30;;;12.90;99.90;;;;;;4970581;23;20014;-72
2023/03/14 09:15:19;;;;;;;0.65;0.30;;;13.00;99.90;;;;;;4963318;28;20424;-72
2023/03/14 09:17:45;;;;;;;2.47;0.40;;;13.00;99.90;;;;;;4965032;28;20090;-72
2023/03/14 09:20:11;;;;;;;0.95;0.40;;;13.00;99.90;;;;;;4960290;28;20060;-73
2023/03/14 09:22:36;;;;;;;1.20;0.20;;;12.90;99.90;;;;;;4961319;28;20155;-73
2023/03/14 09:25:06;;;;;;;0.95;0.32;;;12.90;99.90;;;;;;4964228;28;20039;-72
2023/03/14 09:27:31;;;;;;;0.73;0.30;;;12.70;99.90;;;;;;4966589;28;20038;-72
2023/03/14 09:29:57;;;;;;;1.70;0.30;;;12.60;99.90;;;;;;4963319;28;20034;-72
2023/03/14 09:32:22;;;;;;;0.38;0.20;;;12.50;99.90;;;;;;4966597;28;20118;-72
2023/03/14 09:34:48;;;;;;;1.08;0.20;;;12.40;99.90;;;;;;4962941;28;20031;-72
2023/03/14 09:37:16;;;;;;;0.45;0.15;;;12.40;99.90;;;;;;4963623;28;20038;-72
2023/03/14 09:39:41;;;;;;;1.85;0.15;;;12.30;99.90;;;;;;4967227;28;20027;-72
2023/03/14 09:42:12;;;;;;;1.42;0.20;;;12.20;99.90;;;;;;4964534;28;20499;-72
2023/03/14 09:44:49;;;;;;;1.40;0.20;;;12.20;99.90;;;;;;4962200;28;20058;-72
2023/03/14 09:47:16;;;;;;;0.52;0.30;;;12.20;99.90;;;;;;4963799;28;20122;-73
2023/03/14 09:49:42;;;;;;;0.40;0.13;;;12.20;99.90;;;;;;4968577;28;20046;-72
2023/03/14 09:52:23;;;;;;;0.47;0.20;;;12.20;99.90;;;;;;4967552;28;20122;-73
2023/03/14 09:54:56;;;;;;;1.10;0.57;;;12.00;99.90;;;;;;4966749;28;20045;-73
2023/03/14 09:57:25;;;;;;;0.50;0.20;;;12.00;99.90;;;;;;4971635;28;20106;-73
2023/03/14 09:59:54;;;;;;;0.77;0.40;;;12.00;99.90;;;;;;4964889;28;20069;-73
2023/03/14 10:02:25;;;;;;;0.80;0.30;;;12.00;99.90;;;;;;4966385;28;20035;-75
2023/03/14 10:04:54;;;;;;;0.20;0.10;;;12.00;99.90;;;;;;4965749;28;20114;-72
2023/03/14 10:07:32;;;;;;;0.20;0.20;;;11.90;99.90;;;;;;4965929;28;20480;-72
2023/03/14 10:09:59;;;;;;;0.50;0.30;;;11.90;99.90;;;;;;4966672;28;20462;-72
2023/03/14 10:12:36;;;;;;;0.43;0.20;;;11.90;99.90;;;;;;4963163;28;20038;-72
2023/03/14 10:15:07;;;;;;;1.55;0.35;;;12.00;99.90;;;;;;4966343;28;20035;-72
2023/03/14 10:17:42;;;;;;;0.88;0.30;;;12.00;99.90;;;;;;4968218;28;20038;-73
2023/03/14 10:20:34;;;;;;;0.52;0.20;;;12.10;99.90;;;;;;4964492;28;20023;-73
2023/03/14 10:23:05;;;;;;;1.65;0.45;;;12.10;99.90;;;;;;4967446;28;20027;-73
2023/03/14 10:25:34;;;;;;;0.47;0.20;;;12.20;99.90;;;;;;4966575;28;20114;-73
2023/03/14 10:28:01;;;;;;;0.60;0.20;;;12.20;99.90;;;;;;4964967;28;20030;-73
2023/03/14 10:30:47;;;;;;;0.57;0.30;;;12.20;99.90;;;;;;4968058;28;20570;-73
2023/03/14 10:33:18;;;;;;;1.08;0.35;;;12.20;99.90;;;;;;4970280;28;20042;-73
2023/03/14 10:35:45;;;;;;;0.20;0.20;;;12.20;99.90;;;;;;4973172;28;20397;-73
2023/03/14 10:38:17;;;;;;;0.55;0.20;;;12.20;99.90;;;;;;4963032;28;20023;-73
2023/03/14 10:40:52;;;;;;;1.77;0.22;;;12.20;99.90;;;;;;4962775;28;20049;-73
2023/03/14 10:43:27;;;;;;;1.30;0.22;;;12.20;99.90;;;;;;4966613;28;20126;-73
2023/03/14 10:45:59;;;;;;;1.67;0.35;;;12.20;99.90;;;;;;4963379;28;20026;-73
2023/03/14 10:48:33;;;;;;;0.95;0.28;;;12.10;99.90;;;;;;4961650;28;20035;-73
2023/03/14 10:51:04;;;;;;;0.35;0.30;;;12.10;99.90;;;;;;4962590;28;20158;-73
2023/03/14 10:53:45;;;;;;;1.17;0.35;;;12.10;99.90;;;;;;4967128;28;20782;-74
2023/03/14 10:56:22;;;;;;;0.52;0.30;;;12.10;99.90;;;;;;4972626;28;20030;-73
2023/03/14 10:58:52;;;;;;;0.55;0.35;;;12.10;99.90;;;;;;4962840;28;20502;-73
2023/03/14 11:01:38;;;;;;;1.58;0.30;;;12.10;99.90;;;;;;4968781;28;20094;-74
2023/03/14 11:04:25;;;;;;;0.40;0.30;;;12.20;99.90;;;;;;4966298;28;20035;-73
2023/03/14 11:06:50;;;;;;;3.28;0.47;;;12.10;99.90;;;;;;4963218;28;20034;-73
2023/03/14 11:09:46;;;;;;;0.20;0.20;;;12.20;99.90;;;;;;4967102;28;20035;-73
2023/03/14 11:12:31;;;;;;;0.40;0.30;;;12.10;99.90;;;;;;4966595;28;20023;-73
2023/03/14 11:15:08;;;;;;;0.77;0.30;;;12.10;99.90;;;;;;4966774;28;20035;-73
2023/03/14 11:18:06;;;;;;;0.15;0.15;;;12.00;99.90;;;;;;4963579;28;20387;-73
2023/03/14 11:20:52;;;;;;;2.63;0.20;;;11.90;99.90;;;;;;4946410;28;20496;-74
2023/03/14 11:23:26;;;;;;;0.60;0.30;;;11.80;99.90;;;;;;4965556;28;20028;-74
2023/03/14 11:26:00;;;;;;;0.93;0.30;;;11.70;99.90;;;;;;4965698;28;20338;-74
2023/03/14 11:28:40;;;;;;;0.70;0.30;;;11.60;99.90;;;;;;4962465;28;20442;-73
2023/03/14 11:31:23;;;;;;;1.55;0.60;;;11.60;99.90;;;;;;4960228;28;20026;-73
2023/03/14 11:33:52;;;;;;;0.30;0.20;;;11.50;99.90;;;;;;4965475;28;20023;-74
2023/03/14 11:36:27;;;;;;;0.45;0.15;;;11.40;99.90;;;;;;4965841;28;20019;-75
2023/03/14 11:38:57;;;;;;;0.30;0.20;;;11.40;99.90;;;;;;4964205;28;20106;-73
2023/03/14 11:41:35;;;;;;;0.35;0.17;;;11.40;99.90;;;;;;4963252;28;20456;-73
2023/03/14 11:44:04;;;;;;;2.10;0.50;;;11.40;99.90;;;;;;4958197;28;20039;-73
2023/03/14 11:46:44;;;;;;;1.83;0.30;;;11.30;99.90;;;;;;4961615;28;21345;-73
2023/03/14 11:49:16;;;;;;;1.05;0.40;;;11.30;99.90;;;;;;4962094;28;20042;-74
2023/03/14 11:51:46;;;;;;;1.70;0.80;;;11.20;99.90;;;;;;4958043;28;20149;-74
2023/03/14 11:54:33;;;;;;;1.98;0.73;;;11.20;99.90;;;;;;4962077;28;20019;-73
2023/03/14 11:57:03;;;;;;;3.13;0.90;;;11.20;99.90;;;;;;4968344;28;20037;-73
2023/03/14 11:59:47;;;;;;;0.70;0.40;;;11.20;99.90;;;;;;4959994;28;20147;-73
2023/03/14 12:02:22;;;;;;;6.10;1.30;;;11.20;99.90;;;;;;4958109;28;20089;-74
2023/03/14 12:05:07;;;;;;;2.15;0.40;;;11.20;99.90;;;;;;4976836;28;20451;-73
2023/03/14 12:07:55;;;;;;;;;;;11.20;99.90;;;;;;4958108;28;20631;-73
2023/03/14 12:10:21;;;;;;;0.80;0.40;;;11.20;99.90;;;;;;4962197;28;19910;-73
2023/03/14 12:12:47;;;;;;;0.85;0.22;;;11.20;99.90;;;;;;4959094;28;20088;-73
2023/03/14 12:15:21;;;;;;;0.85;0.40;;;11.20;99.90;;;;;;4966505;28;20030;-73
2023/03/14 12:17:56;;;;;;;0.50;0.30;;;11.30;99.90;;;;;;4967453;28;20454;-73
2023/03/14 12:20:25;;;;;;;1.50;0.30;;;11.20;99.90;;;;;;4971491;28;20492;-73
2023/03/14 12:22:53;;;;;;;0.35;0.20;;;11.10;99.90;;;;;;4963814;28;20031;-74
2023/03/14 12:25:22;;;;;;;2.58;0.30;;;11.00;99.90;;;;;;4963875;28;20027;-73
2023/03/14 12:27:54;;;;;;;1.75;0.20;;;10.90;99.90;;;;;;4963767;28;20490;-73
2023/03/14 12:30:40;;;;;;;2.55;0.22;;;10.80;99.90;;;;;;4960246;28;20045;-74
2023/03/14 12:33:08;;;;;;;0.98;0.63;;;10.60;99.90;;;;;;4969145;28;20604;-73
2023/03/14 12:35:48;;;;;;;1.10;0.25;;;10.50;99.90;;;;;;4966824;28;20054;-73
2023/03/14 12:38:35;;;;;;;0.20;0.20;;;10.30;99.90;;;;;;4969248;28;20023;-73
2023/03/14 12:41:21;;;;;;;0.40;0.20;;;10.20;99.90;;;;;;4969606;28;20083;-73
2023/03/14 12:43:47;;;;;;;1.17;0.30;;;10.10;99.90;;;;;;4968704;28;20039;-74
2023/03/14 12:46:19;;;;;;;2.83;0.30;;;10.10;99.90;;;;;;4962467;28;20038;-73
2023/03/14 12:48:55;;;;;;;0.50;0.20;;;10.10;99.90;;;;;;4966236;28;20089;-75
2023/03/14 12:51:47;;;;;;;0.28;0.20;;;10.10;99.90;;;;;;4964775;28;20101;-74
2023/03/14 12:54:38;;;;;;;1.15;0.30;;;10.10;99.90;;;;;;4965537;28;20046;-74
2023/03/14 12:57:26;;;;;;;0.60;0.20;;;10.20;99.90;;;;;;4966858;28;20065;-75